sensor_id;sensor_type;location;lat;lon;timestamp;temperature;humidity
780;DHT22;373;49.342;8.146;2023-11-25T00:02:15;3.90;99.90
780;DHT22;373;49.342;8.146;2023-11-25T00:04:45;4.00;99.90
780;DHT22;373;49.342;8.146;2023-11-25T00:07:13;4.00;99.90
780;DHT22;373;49.342;8.146;2023-11-25T00:09:40;3.90;99.90
780;DHT22;373;49.342;8.146;2023-11-25T00:12:08;3.90;99.90
780;DHT22;373;49.342;8.146;2023-11-25T00:14:35;3.90;99.90
780;DHT22;373;49.342;8.146;2023-11-25T00:17:03;4.00;99.90
780;DHT22;373;49.342;8.146;2023-11-25T00:19:31;4.00;99.90
780;DHT22;373;49.342;8.146;2023-11-25T00:22:00;4.00;99.90
780;DHT22;373;49.342;8.146;2023-11-25T00:24:27;4.00;99.90
780;DHT22;373;49.342;8.146;2023-11-25T00:26:55;4.10;99.90
780;DHT22;373;49.342;8.146;2023-11-25T00:29:25;4.10;99.90
780;DHT22;373;49.342;8.146;2023-11-25T00:31:53;4.10;97.60
780;DHT22;373;49.342;8.146;2023-11-25T00:34:22;4.00;77.30
780;DHT22;373;49.342;8.146;2023-11-25T00:36:50;4.00;47.40
780;DHT22;373;49.342;8.146;2023-11-25T00:39:19;4.10;39.60
780;DHT22;373;49.342;8.146;2023-11-25T00:41:47;4.00;56.80
780;DHT22;373;49.342;8.146;2023-11-25T00:44:15;4.00;50.40
780;DHT22;373;49.342;8.146;2023-11-25T00:46:42;4.00;65.10
780;DHT22;373;49.342;8.146;2023-11-25T00:49:09;4.00;35.20
780;DHT22;373;49.342;8.146;2023-11-25T00:51:38;4.00;60.00
780;DHT22;373;49.342;8.146;2023-11-25T00:54:06;4.00;20.60
780;DHT22;373;49.342;8.146;2023-11-25T00:56:35;4.00;55.40
780;DHT22;373;49.342;8.146;2023-11-25T00:59:03;4.00;53.00
780;DHT22;373;49.342;8.146;2023-11-25T01:01:30;4.00;50.60
780;DHT22;373;49.342;8.146;2023-11-25T01:03:57;4.00;32.90
780;DHT22;373;49.342;8.146;2023-11-25T01:06:25;4.00;31.80
780;DHT22;373;49.342;8.146;2023-11-25T01:08:52;4.00;24.70
780;DHT22;373;49.342;8.146;2023-11-25T01:11:20;4.10;1.00
780;DHT22;373;49.342;8.146;2023-11-25T01:13:48;4.10;1.00
780;DHT22;373;49.342;8.146;2023-11-25T01:16:16;4.20;20.30
780;DHT22;373;49.342;8.146;2023-11-25T01:18:43;4.10;1.00
780;DHT22;373;49.342;8.146;2023-11-25T01:21:11;4.10;14.60
780;DHT22;373;49.342;8.146;2023-11-25T01:23:38;4.30;1.00
780;DHT22;373;49.342;8.146;2023-11-25T01:26:05;4.30;1.00
780;DHT22;373;49.342;8.146;2023-11-25T01:28:34;4.10;1.00
780;DHT22;373;49.342;8.146;2023-11-25T01:31:05;4.10;1.00
780;DHT22;373;49.342;8.146;2023-11-25T01:33:32;4.20;1.00
780;DHT22;373;49.342;8.146;2023-11-25T01:35:59;4.20;1.00
780;DHT22;373;49.342;8.146;2023-11-25T01:38:26;4.20;1.00
780;DHT22;373;49.342;8.146;2023-11-25T01:40:53;4.20;1.00
780;DHT22;373;49.342;8.146;2023-11-25T01:43:21;4.20;1.00
780;DHT22;373;49.342;8.146;2023-11-25T01:45:50;4.20;1.00
780;DHT22;373;49.342;8.146;2023-11-25T01:48:19;4.20;1.00
780;DHT22;373;49.342;8.146;2023-11-25T01:50:48;4.10;1.00
780;DHT22;373;49.342;8.146;2023-11-25T01:53:16;4.20;1.00
780;DHT22;373;49.342;8.146;2023-11-25T01:55:46;4.10;1.00
780;DHT22;373;49.342;8.146;2023-11-25T01:58:13;4.00;1.00
780;DHT22;373;49.342;8.146;2023-11-25T02:00:42;4.20;1.00
780;DHT22;373;49.342;8.146;2023-11-25T02:03:10;4.00;1.00
780;DHT22;373;49.342;8.146;2023-11-25T02:05:39;3.90;1.00
780;DHT22;373;49.342;8.146;2023-11-25T02:08:06;3.80;1.00
780;DHT22;373;49.342;8.146;2023-11-25T02:10:34;3.80;1.00
780;DHT22;373;49.342;8.146;2023-11-25T02:13:01;3.80;1.00
780;DHT22;373;49.342;8.146;2023-11-25T02:15:34;3.70;1.00
780;DHT22;373;49.342;8.146;2023-11-25T02:18:01;3.70;1.00
780;DHT22;373;49.342;8.146;2023-11-25T02:20:31;3.70;1.00
780;DHT22;373;49.342;8.146;2023-11-25T02:23:00;3.60;1.00
780;DHT22;373;49.342;8.146;2023-11-25T02:25:27;3.70;1.00
780;DHT22;373;49.342;8.146;2023-11-25T02:27:54;3.60;1.00
780;DHT22;373;49.342;8.146;2023-11-25T02:30:21;3.60;1.00
780;DHT22;373;49.342;8.146;2023-11-25T02:32:49;3.70;1.00
780;DHT22;373;49.342;8.146;2023-11-25T02:35:16;3.60;1.00
780;DHT22;373;49.342;8.146;2023-11-25T02:37:44;3.60;1.00
780;DHT22;373;49.342;8.146;2023-11-25T02:40:13;3.60;1.00
780;DHT22;373;49.342;8.146;2023-11-25T02:42:43;3.50;1.00
780;DHT22;373;49.342;8.146;2023-11-25T02:45:17;3.60;1.00
780;DHT22;373;49.342;8.146;2023-11-25T02:47:45;3.60;1.00
780;DHT22;373;49.342;8.146;2023-11-25T02:50:13;3.60;1.00
780;DHT22;373;49.342;8.146;2023-11-25T02:52:40;3.60;1.00
780;DHT22;373;49.342;8.146;2023-11-25T02:55:08;3.60;1.00
780;DHT22;373;49.342;8.146;2023-11-25T02:57:39;3.60;1.00
780;DHT22;373;49.342;8.146;2023-11-25T03:00:10;3.60;1.00
780;DHT22;373;49.342;8.146;2023-11-25T03:02:54;3.50;1.00
780;DHT22;373;49.342;8.146;2023-11-25T03:05:26;3.50;1.00
780;DHT22;373;49.342;8.146;2023-11-25T03:07:54;3.60;1.00
780;DHT22;373;49.342;8.146;2023-11-25T03:10:22;3.60;1.00
780;DHT22;373;49.342;8.146;2023-11-25T03:12:53;3.50;1.00
780;DHT22;373;49.342;8.146;2023-11-25T03:15:20;3.60;1.00
780;DHT22;373;49.342;8.146;2023-11-25T03:17:47;3.50;1.00
780;DHT22;373;49.342;8.146;2023-11-25T03:20:14;3.50;1.00
780;DHT22;373;49.342;8.146;2023-11-25T03:22:41;3.50;1.00
780;DHT22;373;49.342;8.146;2023-11-25T03:25:08;3.50;1.00
780;DHT22;373;49.342;8.146;2023-11-25T03:27:36;3.50;1.00
780;DHT22;373;49.342;8.146;2023-11-25T03:30:05;3.50;1.00
780;DHT22;373;49.342;8.146;2023-11-25T03:32:33;3.50;1.00
780;DHT22;373;49.342;8.146;2023-11-25T03:35:00;3.50;1.00
780;DHT22;373;49.342;8.146;2023-11-25T03:37:27;3.50;1.00
780;DHT22;373;49.342;8.146;2023-11-25T03:39:55;3.50;1.00
780;DHT22;373;49.342;8.146;2023-11-25T03:42:22;3.50;1.00
780;DHT22;373;49.342;8.146;2023-11-25T03:44:49;3.40;1.00
780;DHT22;373;49.342;8.146;2023-11-25T03:47:18;3.30;1.00
780;DHT22;373;49.342;8.146;2023-11-25T03:49:46;3.40;1.00
780;DHT22;373;49.342;8.146;2023-11-25T03:52:13;3.40;1.00
780;DHT22;373;49.342;8.146;2023-11-25T03:54:41;3.40;1.00
780;DHT22;373;49.342;8.146;2023-11-25T03:57:09;3.40;1.00
780;DHT22;373;49.342;8.146;2023-11-25T03:59:36;3.30;1.00
780;DHT22;373;49.342;8.146;2023-11-25T04:02:03;3.30;1.00
780;DHT22;373;49.342;8.146;2023-11-25T04:04:33;3.20;1.00
780;DHT22;373;49.342;8.146;2023-11-25T04:07:00;3.20;1.00
780;DHT22;373;49.342;8.146;2023-11-25T04:09:27;3.20;1.00
780;DHT22;373;49.342;8.146;2023-11-25T04:11:54;3.20;1.00
780;DHT22;373;49.342;8.146;2023-11-25T04:14:22;3.20;1.00
780;DHT22;373;49.342;8.146;2023-11-25T04:16:51;3.30;1.00
780;DHT22;373;49.342;8.146;2023-11-25T04:19:18;3.30;1.00
780;DHT22;373;49.342;8.146;2023-11-25T04:21:47;3.40;1.00
780;DHT22;373;49.342;8.146;2023-11-25T04:24:16;3.30;1.00
780;DHT22;373;49.342;8.146;2023-11-25T04:26:46;3.30;1.00
780;DHT22;373;49.342;8.146;2023-11-25T04:29:13;3.30;1.00
780;DHT22;373;49.342;8.146;2023-11-25T04:31:40;3.30;1.00
780;DHT22;373;49.342;8.146;2023-11-25T04:34:07;3.40;1.00
780;DHT22;373;49.342;8.146;2023-11-25T04:36:34;3.30;1.00
780;DHT22;373;49.342;8.146;2023-11-25T04:39:03;3.30;1.00
780;DHT22;373;49.342;8.146;2023-11-25T04:41:31;3.20;1.00
780;DHT22;373;49.342;8.146;2023-11-25T04:43:58;3.20;1.00
780;DHT22;373;49.342;8.146;2023-11-25T04:46:25;3.00;1.00
780;DHT22;373;49.342;8.146;2023-11-25T04:48:52;3.00;1.00
780;DHT22;373;49.342;8.146;2023-11-25T04:51:22;3.00;1.00
780;DHT22;373;49.342;8.146;2023-11-25T04:53:50;3.10;1.00
780;DHT22;373;49.342;8.146;2023-11-25T04:56:18;3.10;1.00
780;DHT22;373;49.342;8.146;2023-11-25T04:58:45;3.10;1.00
780;DHT22;373;49.342;8.146;2023-11-25T05:01:12;3.20;1.00
780;DHT22;373;49.342;8.146;2023-11-25T05:03:39;3.30;1.00
780;DHT22;373;49.342;8.146;2023-11-25T05:06:08;3.40;1.00
780;DHT22;373;49.342;8.146;2023-11-25T05:08:36;3.40;1.00
780;DHT22;373;49.342;8.146;2023-11-25T05:11:04;3.60;1.00
780;DHT22;373;49.342;8.146;2023-11-25T05:13:33;3.50;1.00
780;DHT22;373;49.342;8.146;2023-11-25T05:16:00;3.60;1.00
780;DHT22;373;49.342;8.146;2023-11-25T05:18:29;3.50;1.00
780;DHT22;373;49.342;8.146;2023-11-25T05:20:57;3.60;1.00
780;DHT22;373;49.342;8.146;2023-11-25T05:23:24;3.70;1.00
780;DHT22;373;49.342;8.146;2023-11-25T05:25:51;3.70;1.00
780;DHT22;373;49.342;8.146;2023-11-25T05:28:20;3.70;1.00
780;DHT22;373;49.342;8.146;2023-11-25T05:30:49;3.70;1.00
780;DHT22;373;49.342;8.146;2023-11-25T05:33:17;3.80;1.00
780;DHT22;373;49.342;8.146;2023-11-25T05:35:44;3.80;1.00
780;DHT22;373;49.342;8.146;2023-11-25T05:38:15;3.80;1.00
780;DHT22;373;49.342;8.146;2023-11-25T05:40:44;3.80;1.00
780;DHT22;373;49.342;8.146;2023-11-25T05:43:12;3.80;1.00
780;DHT22;373;49.342;8.146;2023-11-25T05:45:42;3.70;1.00
780;DHT22;373;49.342;8.146;2023-11-25T05:48:11;3.70;1.00
780;DHT22;373;49.342;8.146;2023-11-25T05:50:39;3.70;1.00
780;DHT22;373;49.342;8.146;2023-11-25T05:53:08;3.70;1.00
780;DHT22;373;49.342;8.146;2023-11-25T05:55:36;3.70;1.00
780;DHT22;373;49.342;8.146;2023-11-25T05:58:04;3.80;1.00
780;DHT22;373;49.342;8.146;2023-11-25T06:00:31;3.70;1.00
780;DHT22;373;49.342;8.146;2023-11-25T06:02:59;3.80;1.00
780;DHT22;373;49.342;8.146;2023-11-25T06:05:28;3.70;1.00
780;DHT22;373;49.342;8.146;2023-11-25T06:07:56;3.80;1.00
780;DHT22;373;49.342;8.146;2023-11-25T06:10:23;3.80;1.00
780;DHT22;373;49.342;8.146;2023-11-25T06:12:50;3.80;1.00
780;DHT22;373;49.342;8.146;2023-11-25T06:15:18;3.70;1.00
780;DHT22;373;49.342;8.146;2023-11-25T06:17:45;3.60;1.00
780;DHT22;373;49.342;8.146;2023-11-25T06:20:13;3.50;1.00
780;DHT22;373;49.342;8.146;2023-11-25T06:22:42;3.50;1.00
780;DHT22;373;49.342;8.146;2023-11-25T06:25:09;3.50;1.00
780;DHT22;373;49.342;8.146;2023-11-25T06:27:36;3.50;1.00
780;DHT22;373;49.342;8.146;2023-11-25T06:30:04;3.50;1.00
780;DHT22;373;49.342;8.146;2023-11-25T06:32:31;3.50;1.00
780;DHT22;373;49.342;8.146;2023-11-25T06:34:58;3.40;1.00
780;DHT22;373;49.342;8.146;2023-11-25T06:37:26;3.40;1.00
780;DHT22;373;49.342;8.146;2023-11-25T06:39:55;3.40;1.00
780;DHT22;373;49.342;8.146;2023-11-25T06:42:22;3.20;1.00
780;DHT22;373;49.342;8.146;2023-11-25T06:44:50;3.20;1.00
780;DHT22;373;49.342;8.146;2023-11-25T06:47:17;3.20;1.00
780;DHT22;373;49.342;8.146;2023-11-25T06:49:45;3.30;1.00
780;DHT22;373;49.342;8.146;2023-11-25T06:52:13;3.40;1.00
780;DHT22;373;49.342;8.146;2023-11-25T06:54:40;3.40;1.00
780;DHT22;373;49.342;8.146;2023-11-25T06:57:11;3.40;1.00
780;DHT22;373;49.342;8.146;2023-11-25T06:59:40;3.40;1.00
780;DHT22;373;49.342;8.146;2023-11-25T07:02:11;3.60;1.00
780;DHT22;373;49.342;8.146;2023-11-25T07:04:38;3.50;1.00
780;DHT22;373;49.342;8.146;2023-11-25T07:07:05;3.60;1.00
780;DHT22;373;49.342;8.146;2023-11-25T07:09:33;3.70;1.00
780;DHT22;373;49.342;8.146;2023-11-25T07:12:00;3.70;1.00
780;DHT22;373;49.342;8.146;2023-11-25T07:14:29;3.70;1.00
780;DHT22;373;49.342;8.146;2023-11-25T07:16:56;3.80;1.00
780;DHT22;373;49.342;8.146;2023-11-25T07:19:23;3.90;1.00
780;DHT22;373;49.342;8.146;2023-11-25T07:21:50;4.20;1.00
780;DHT22;373;49.342;8.146;2023-11-25T07:24:18;4.40;99.90
780;DHT22;373;49.342;8.146;2023-11-25T07:26:45;4.50;99.90
780;DHT22;373;49.342;8.146;2023-11-25T07:29:17;4.80;99.90
780;DHT22;373;49.342;8.146;2023-11-25T07:31:46;5.30;99.90
780;DHT22;373;49.342;8.146;2023-11-25T07:34:14;5.40;99.90
780;DHT22;373;49.342;8.146;2023-11-25T07:36:43;5.50;91.60
780;DHT22;373;49.342;8.146;2023-11-25T07:39:16;5.40;99.90
780;DHT22;373;49.342;8.146;2023-11-25T07:41:45;5.20;99.90
780;DHT22;373;49.342;8.146;2023-11-25T07:44:13;4.80;99.20
780;DHT22;373;49.342;8.146;2023-11-25T07:46:42;5.10;95.80
780;DHT22;373;49.342;8.146;2023-11-25T07:49:11;5.50;1.00
780;DHT22;373;49.342;8.146;2023-11-25T07:51:38;5.80;1.00
780;DHT22;373;49.342;8.146;2023-11-25T07:54:06;6.40;1.00
780;DHT22;373;49.342;8.146;2023-11-25T07:56:34;6.60;1.00
780;DHT22;373;49.342;8.146;2023-11-25T07:59:02;6.90;1.00
780;DHT22;373;49.342;8.146;2023-11-25T08:01:30;7.50;1.00
780;DHT22;373;49.342;8.146;2023-11-25T08:03:58;7.50;99.90
780;DHT22;373;49.342;8.146;2023-11-25T08:06:27;7.60;99.90
780;DHT22;373;49.342;8.146;2023-11-25T08:08:54;7.40;99.90
780;DHT22;373;49.342;8.146;2023-11-25T08:11:22;6.60;1.00
780;DHT22;373;49.342;8.146;2023-11-25T08:13:49;6.30;99.90
780;DHT22;373;49.342;8.146;2023-11-25T08:16:16;6.10;99.90
780;DHT22;373;49.342;8.146;2023-11-25T08:18:44;5.70;97.10
780;DHT22;373;49.342;8.146;2023-11-25T08:21:11;5.60;1.00
780;DHT22;373;49.342;8.146;2023-11-25T08:23:41;5.60;1.00
780;DHT22;373;49.342;8.146;2023-11-25T08:26:19;5.70;1.00
780;DHT22;373;49.342;8.146;2023-11-25T08:28:48;6.10;1.00
780;DHT22;373;49.342;8.146;2023-11-25T08:31:15;6.60;1.00
780;DHT22;373;49.342;8.146;2023-11-25T08:33:43;6.40;99.90
780;DHT22;373;49.342;8.146;2023-11-25T08:36:10;6.00;99.90
780;DHT22;373;49.342;8.146;2023-11-25T08:38:39;6.00;22.50
780;DHT22;373;49.342;8.146;2023-11-25T08:41:07;5.90;99.90
780;DHT22;373;49.342;8.146;2023-11-25T08:43:36;5.60;94.50
780;DHT22;373;49.342;8.146;2023-11-25T08:46:04;5.40;1.00
780;DHT22;373;49.342;8.146;2023-11-25T08:48:31;5.20;99.90
780;DHT22;373;49.342;8.146;2023-11-25T08:50:58;5.20;1.00
780;DHT22;373;49.342;8.146;2023-11-25T08:53:26;5.00;1.00
780;DHT22;373;49.342;8.146;2023-11-25T08:55:56;5.00;99.90
780;DHT22;373;49.342;8.146;2023-11-25T08:58:25;5.00;99.90
780;DHT22;373;49.342;8.146;2023-11-25T09:00:52;5.00;99.90
780;DHT22;373;49.342;8.146;2023-11-25T09:03:19;5.00;99.90
780;DHT22;373;49.342;8.146;2023-11-25T09:05:46;5.10;99.90
780;DHT22;373;49.342;8.146;2023-11-25T09:08:14;5.00;99.90
780;DHT22;373;49.342;8.146;2023-11-25T09:10:42;5.10;99.90
780;DHT22;373;49.342;8.146;2023-11-25T09:13:10;5.00;99.90
780;DHT22;373;49.342;8.146;2023-11-25T09:15:37;5.00;99.90
780;DHT22;373;49.342;8.146;2023-11-25T09:18:05;5.00;1.00
780;DHT22;373;49.342;8.146;2023-11-25T09:20:33;4.90;99.90
780;DHT22;373;49.342;8.146;2023-11-25T09:23:00;5.10;99.90
780;DHT22;373;49.342;8.146;2023-11-25T09:25:27;5.20;99.90
780;DHT22;373;49.342;8.146;2023-11-25T09:27:57;5.20;99.90
780;DHT22;373;49.342;8.146;2023-11-25T09:30:25;5.40;99.90
780;DHT22;373;49.342;8.146;2023-11-25T09:32:52;5.20;99.90
780;DHT22;373;49.342;8.146;2023-11-25T09:35:20;5.00;99.90
780;DHT22;373;49.342;8.146;2023-11-25T09:37:47;5.10;99.90
780;DHT22;373;49.342;8.146;2023-11-25T09:40:16;5.10;99.90
780;DHT22;373;49.342;8.146;2023-11-25T09:42:46;5.20;99.90
780;DHT22;373;49.342;8.146;2023-11-25T09:45:13;5.00;99.90
780;DHT22;373;49.342;8.146;2023-11-25T09:47:43;5.00;1.00
780;DHT22;373;49.342;8.146;2023-11-25T09:50:11;5.00;1.00
780;DHT22;373;49.342;8.146;2023-11-25T09:52:42;5.10;1.00
780;DHT22;373;49.342;8.146;2023-11-25T09:55:10;5.20;1.00
780;DHT22;373;49.342;8.146;2023-11-25T09:57:38;5.30;99.90
780;DHT22;373;49.342;8.146;2023-11-25T10:00:08;5.30;99.90
780;DHT22;373;49.342;8.146;2023-11-25T10:02:38;5.20;99.90
780;DHT22;373;49.342;8.146;2023-11-25T10:05:08;5.20;99.90
780;DHT22;373;49.342;8.146;2023-11-25T10:07:37;5.40;1.00
780;DHT22;373;49.342;8.146;2023-11-25T10:10:05;5.50;99.90
780;DHT22;373;49.342;8.146;2023-11-25T10:12:33;5.30;99.90
780;DHT22;373;49.342;8.146;2023-11-25T10:15:00;5.30;1.00
780;DHT22;373;49.342;8.146;2023-11-25T10:17:28;5.20;1.00
780;DHT22;373;49.342;8.146;2023-11-25T10:20:04;5.20;99.90
780;DHT22;373;49.342;8.146;2023-11-25T10:22:45;5.30;99.90
780;DHT22;373;49.342;8.146;2023-11-25T10:25:15;5.30;99.90
780;DHT22;373;49.342;8.146;2023-11-25T10:27:43;5.30;99.90
780;DHT22;373;49.342;8.146;2023-11-25T10:30:12;5.30;99.90
780;DHT22;373;49.342;8.146;2023-11-25T10:32:40;5.50;99.90
780;DHT22;373;49.342;8.146;2023-11-25T10:35:08;5.30;99.90
780;DHT22;373;49.342;8.146;2023-11-25T10:37:36;5.30;99.90
780;DHT22;373;49.342;8.146;2023-11-25T10:40:07;5.30;99.90
780;DHT22;373;49.342;8.146;2023-11-25T10:42:40;5.20;99.90
780;DHT22;373;49.342;8.146;2023-11-25T10:45:14;5.20;1.00
780;DHT22;373;49.342;8.146;2023-11-25T10:47:41;5.30;1.00
780;DHT22;373;49.342;8.146;2023-11-25T10:50:09;5.20;99.90
780;DHT22;373;49.342;8.146;2023-11-25T10:52:37;5.10;1.00
780;DHT22;373;49.342;8.146;2023-11-25T10:55:09;5.20;99.90
780;DHT22;373;49.342;8.146;2023-11-25T10:57:38;5.30;99.90
780;DHT22;373;49.342;8.146;2023-11-25T11:00:07;5.50;99.90
780;DHT22;373;49.342;8.146;2023-11-25T11:02:43;5.60;99.90
780;DHT22;373;49.342;8.146;2023-11-25T11:05:12;5.50;99.90
780;DHT22;373;49.342;8.146;2023-11-25T11:07:45;5.60;99.90
780;DHT22;373;49.342;8.146;2023-11-25T11:10:18;5.80;76.50
780;DHT22;373;49.342;8.146;2023-11-25T11:12:54;6.00;1.00
780;DHT22;373;49.342;8.146;2023-11-25T11:15:27;5.90;25.60
780;DHT22;373;49.342;8.146;2023-11-25T11:18:03;5.90;1.00
780;DHT22;373;49.342;8.146;2023-11-25T11:20:43;5.90;1.00
780;DHT22;373;49.342;8.146;2023-11-25T11:23:12;5.90;99.90
780;DHT22;373;49.342;8.146;2023-11-25T11:25:52;5.90;13.00
780;DHT22;373;49.342;8.146;2023-11-25T11:28:23;6.10;1.00
780;DHT22;373;49.342;8.146;2023-11-25T11:33:51;6.20;1.00
780;DHT22;373;49.342;8.146;2023-11-25T11:36:19;6.30;99.90
780;DHT22;373;49.342;8.146;2023-11-25T11:38:47;6.20;99.90
780;DHT22;373;49.342;8.146;2023-11-25T11:41:25;6.20;99.90
780;DHT22;373;49.342;8.146;2023-11-25T11:44:01;6.10;1.00
780;DHT22;373;49.342;8.146;2023-11-25T11:46:29;5.90;1.00
780;DHT22;373;49.342;8.146;2023-11-25T11:48:58;5.90;89.50
780;DHT22;373;49.342;8.146;2023-11-25T11:51:25;6.00;82.30
780;DHT22;373;49.342;8.146;2023-11-25T11:54:23;6.30;99.90
780;DHT22;373;49.342;8.146;2023-11-25T11:57:02;6.20;1.00
780;DHT22;373;49.342;8.146;2023-11-25T11:59:56;6.40;5.80
780;DHT22;373;49.342;8.146;2023-11-25T12:02:24;6.10;1.00
780;DHT22;373;49.342;8.146;2023-11-25T12:04:54;6.30;1.00
780;DHT22;373;49.342;8.146;2023-11-25T12:07:21;6.30;99.90
780;DHT22;373;49.342;8.146;2023-11-25T12:09:48;6.30;1.00
780;DHT22;373;49.342;8.146;2023-11-25T12:12:18;6.40;1.00
780;DHT22;373;49.342;8.146;2023-11-25T12:14:45;6.40;99.90
780;DHT22;373;49.342;8.146;2023-11-25T12:17:13;6.50;99.90
780;DHT22;373;49.342;8.146;2023-11-25T12:19:41;6.60;99.90
780;DHT22;373;49.342;8.146;2023-11-25T12:22:08;6.70;1.00
780;DHT22;373;49.342;8.146;2023-11-25T12:24:37;6.80;99.90
780;DHT22;373;49.342;8.146;2023-11-25T12:27:05;7.00;1.00
780;DHT22;373;49.342;8.146;2023-11-25T12:29:35;7.20;99.90
780;DHT22;373;49.342;8.146;2023-11-25T12:32:03;7.80;99.90
780;DHT22;373;49.342;8.146;2023-11-25T12:34:30;7.70;1.00
780;DHT22;373;49.342;8.146;2023-11-25T12:36:59;7.90;99.90
780;DHT22;373;49.342;8.146;2023-11-25T12:39:26;8.00;22.60
780;DHT22;373;49.342;8.146;2023-11-25T12:41:54;7.90;1.00
780;DHT22;373;49.342;8.146;2023-11-25T12:44:21;8.20;1.00
780;DHT22;373;49.342;8.146;2023-11-25T12:47:03;8.10;1.00
780;DHT22;373;49.342;8.146;2023-11-25T12:49:32;8.20;1.00
780;DHT22;373;49.342;8.146;2023-11-25T12:52:00;8.20;1.00
780;DHT22;373;49.342;8.146;2023-11-25T12:54:42;8.00;1.00
780;DHT22;373;49.342;8.146;2023-11-25T12:57:10;8.40;1.00
780;DHT22;373;49.342;8.146;2023-11-25T12:59:38;8.60;99.90
780;DHT22;373;49.342;8.146;2023-11-25T13:02:08;8.30;99.90
780;DHT22;373;49.342;8.146;2023-11-25T13:04:42;8.10;1.00
780;DHT22;373;49.342;8.146;2023-11-25T13:07:27;8.20;1.00
780;DHT22;373;49.342;8.146;2023-11-25T13:09:54;7.90;1.00
780;DHT22;373;49.342;8.146;2023-11-25T13:12:21;8.00;1.00
780;DHT22;373;49.342;8.146;2023-11-25T13:14:48;8.00;1.00
780;DHT22;373;49.342;8.146;2023-11-25T13:17:17;7.90;1.00
780;DHT22;373;49.342;8.146;2023-11-25T13:19:44;7.60;1.00
780;DHT22;373;49.342;8.146;2023-11-25T13:22:11;7.60;1.00
780;DHT22;373;49.342;8.146;2023-11-25T13:24:38;7.90;1.00
780;DHT22;373;49.342;8.146;2023-11-25T13:27:05;7.60;99.90
780;DHT22;373;49.342;8.146;2023-11-25T13:29:33;7.60;99.90
780;DHT22;373;49.342;8.146;2023-11-25T13:32:00;8.10;1.00
780;DHT22;373;49.342;8.146;2023-11-25T13:34:29;8.20;1.00
780;DHT22;373;49.342;8.146;2023-11-25T13:36:56;8.20;99.90
780;DHT22;373;49.342;8.146;2023-11-25T13:39:23;7.70;1.00
780;DHT22;373;49.342;8.146;2023-11-25T13:41:50;7.50;64.30
780;DHT22;373;49.342;8.146;2023-11-25T13:44:18;7.30;39.60
780;DHT22;373;49.342;8.146;2023-11-25T13:46:45;7.20;99.90
780;DHT22;373;49.342;8.146;2023-11-25T13:52:25;6.90;99.90
780;DHT22;373;49.342;8.146;2023-11-25T13:54:52;6.70;99.90
780;DHT22;373;49.342;8.146;2023-11-25T13:57:19;6.70;99.90
780;DHT22;373;49.342;8.146;2023-11-25T13:59:46;6.50;99.90
780;DHT22;373;49.342;8.146;2023-11-25T14:02:13;6.50;99.90
780;DHT22;373;49.342;8.146;2023-11-25T14:04:41;6.70;99.90
780;DHT22;373;49.342;8.146;2023-11-25T14:07:08;6.80;99.90
780;DHT22;373;49.342;8.146;2023-11-25T14:09:37;6.70;99.90
780;DHT22;373;49.342;8.146;2023-11-25T14:12:05;6.70;99.90
780;DHT22;373;49.342;8.146;2023-11-25T14:14:33;6.80;1.00
780;DHT22;373;49.342;8.146;2023-11-25T14:17:01;6.80;1.00
780;DHT22;373;49.342;8.146;2023-11-25T14:19:28;6.50;99.90
780;DHT22;373;49.342;8.146;2023-11-25T14:21:55;6.50;99.90
780;DHT22;373;49.342;8.146;2023-11-25T14:24:22;6.50;57.20
780;DHT22;373;49.342;8.146;2023-11-25T14:26:50;6.60;1.00
780;DHT22;373;49.342;8.146;2023-11-25T14:29:17;6.50;1.00
780;DHT22;373;49.342;8.146;2023-11-25T14:31:44;6.50;48.30
780;DHT22;373;49.342;8.146;2023-11-25T14:34:11;6.50;99.90
780;DHT22;373;49.342;8.146;2023-11-25T14:36:38;6.50;99.90
780;DHT22;373;49.342;8.146;2023-11-25T14:39:05;6.40;99.90
780;DHT22;373;49.342;8.146;2023-11-25T14:41:34;6.40;99.90
780;DHT22;373;49.342;8.146;2023-11-25T14:44:03;6.50;99.90
780;DHT22;373;49.342;8.146;2023-11-25T14:46:30;6.40;99.90
780;DHT22;373;49.342;8.146;2023-11-25T14:48:57;6.40;1.00
780;DHT22;373;49.342;8.146;2023-11-25T14:51:24;6.30;99.90
780;DHT22;373;49.342;8.146;2023-11-25T14:53:51;6.30;99.90
780;DHT22;373;49.342;8.146;2023-11-25T14:56:18;6.30;1.00
780;DHT22;373;49.342;8.146;2023-11-25T14:58:45;6.30;92.20
780;DHT22;373;49.342;8.146;2023-11-25T15:01:15;6.30;99.90
780;DHT22;373;49.342;8.146;2023-11-25T15:03:42;6.20;51.20
780;DHT22;373;49.342;8.146;2023-11-25T15:06:09;6.20;99.90
780;DHT22;373;49.342;8.146;2023-11-25T15:08:36;6.20;99.90
780;DHT22;373;49.342;8.146;2023-11-25T15:11:03;6.10;50.00
780;DHT22;373;49.342;8.146;2023-11-25T15:13:30;6.20;1.00
780;DHT22;373;49.342;8.146;2023-11-25T15:15:57;6.20;99.90
780;DHT22;373;49.342;8.146;2023-11-25T15:18:27;6.20;99.90
780;DHT22;373;49.342;8.146;2023-11-25T15:20:54;6.10;99.90
780;DHT22;373;49.342;8.146;2023-11-25T15:23:22;6.10;99.90
780;DHT22;373;49.342;8.146;2023-11-25T15:25:49;6.20;99.90
780;DHT22;373;49.342;8.146;2023-11-25T15:28:16;6.20;99.90
780;DHT22;373;49.342;8.146;2023-11-25T15:30:43;6.30;99.90
780;DHT22;373;49.342;8.146;2023-11-25T15:36:10;6.10;99.90
780;DHT22;373;49.342;8.146;2023-11-25T15:38:37;6.10;99.90
780;DHT22;373;49.342;8.146;2023-11-25T15:41:06;6.10;99.90
780;DHT22;373;49.342;8.146;2023-11-25T15:43:34;6.20;99.90
780;DHT22;373;49.342;8.146;2023-11-25T15:46:02;6.20;99.90
780;DHT22;373;49.342;8.146;2023-11-25T15:48:31;6.20;21.50
780;DHT22;373;49.342;8.146;2023-11-25T15:50:58;6.30;1.00
780;DHT22;373;49.342;8.146;2023-11-25T15:53:27;6.20;99.90
780;DHT22;373;49.342;8.146;2023-11-25T15:55:54;6.00;99.90
780;DHT22;373;49.342;8.146;2023-11-25T15:58:21;5.90;99.90
780;DHT22;373;49.342;8.146;2023-11-25T16:00:48;5.90;99.90
780;DHT22;373;49.342;8.146;2023-11-25T16:03:20;5.90;99.90
780;DHT22;373;49.342;8.146;2023-11-25T16:05:49;6.00;99.90
780;DHT22;373;49.342;8.146;2023-11-25T16:08:17;6.00;99.90
780;DHT22;373;49.342;8.146;2023-11-25T16:10:58;6.00;99.90
780;DHT22;373;49.342;8.146;2023-11-25T16:13:26;6.00;99.90
780;DHT22;373;49.342;8.146;2023-11-25T16:15:53;6.10;99.90
780;DHT22;373;49.342;8.146;2023-11-25T16:18:20;6.10;99.90
780;DHT22;373;49.342;8.146;2023-11-25T16:20:49;6.10;99.90
780;DHT22;373;49.342;8.146;2023-11-25T16:23:16;6.10;99.90
780;DHT22;373;49.342;8.146;2023-11-25T16:25:44;6.20;99.90
780;DHT22;373;49.342;8.146;2023-11-25T16:28:13;6.20;99.90
780;DHT22;373;49.342;8.146;2023-11-25T16:30:40;6.10;99.90
780;DHT22;373;49.342;8.146;2023-11-25T16:33:07;6.20;99.90
780;DHT22;373;49.342;8.146;2023-11-25T16:35:34;6.20;99.90
780;DHT22;373;49.342;8.146;2023-11-25T16:38:02;6.20;99.90
780;DHT22;373;49.342;8.146;2023-11-25T16:40:30;6.20;51.50
780;DHT22;373;49.342;8.146;2023-11-25T16:42:57;6.20;99.90
780;DHT22;373;49.342;8.146;2023-11-25T16:45:25;6.20;99.90
780;DHT22;373;49.342;8.146;2023-11-25T16:47:52;6.20;90.20
780;DHT22;373;49.342;8.146;2023-11-25T16:50:20;6.20;99.90
780;DHT22;373;49.342;8.146;2023-11-25T16:52:47;6.30;99.90
780;DHT22;373;49.342;8.146;2023-11-25T16:55:14;6.30;99.90
780;DHT22;373;49.342;8.146;2023-11-25T16:57:42;6.30;99.90
780;DHT22;373;49.342;8.146;2023-11-25T17:00:13;6.30;99.90
780;DHT22;373;49.342;8.146;2023-11-25T17:02:43;6.30;99.90
780;DHT22;373;49.342;8.146;2023-11-25T17:05:12;6.20;99.90
780;DHT22;373;49.342;8.146;2023-11-25T17:07:39;6.20;99.90
780;DHT22;373;49.342;8.146;2023-11-25T17:10:07;6.30;99.90
780;DHT22;373;49.342;8.146;2023-11-25T17:12:34;6.30;99.90
780;DHT22;373;49.342;8.146;2023-11-25T17:15:07;6.20;99.90
780;DHT22;373;49.342;8.146;2023-11-25T17:17:34;6.20;99.90
780;DHT22;373;49.342;8.146;2023-11-25T17:20:07;6.20;1.00